Weather at Ayios Nikolaos South Heliport

Public forecast

Using degrees Celsius for public forecast. Weather courtesy of forecast.io.

Closest aviation weather report (METAR) to Ayios Nikolaos South Heliport

Closest report is Larnaca International Airport, 18.4 nm (34.0 km) SW.

2022/12/05 13:00 (retrieved 34 minutes ago)

LCLK 051300Z 18007KT 9999 FEW030 22/10 Q1017 NOSIG

Closest aviation forecast (TAF) to Ayios Nikolaos South Heliport

Closest forecast is Larnaca International Airport, 18.4 nm (34.0 km) SW.

2022/12/05 12:30 (retrieved 1 hour ago)

TAF LCLK 051130Z 0512/0612 19010KT 9999 FEW025 BECMG 0515/0518 31006KT BECMG 0609/0612 19010KT